Time;durP1;ratioP1;P1;durP2;ratioP2;P2;SDS_P1;SDS_P2;PMS_P1;PMS_P2;Temp;Humidity;BMP_temperature;BMP_pressure;BME280_temperature;BME280_humidity;BME280_pressure;Samples;Min_cycle;Max_cycle;Signal;HPM_P1;HPM_P2
2023/03/22 00:02:05;;;;;;;28.63;21.17;;;9.40;32.20;;;;;;5084430;28;20506;-57
2023/03/22 00:04:31;;;;;;;26.27;20.73;;;9.30;32.60;;;;;;5087984;28;20511;-56
2023/03/22 00:06:59;;;;;;;28.90;23.80;;;9.30;33.40;;;;;;5093748;28;20449;-57
2023/03/22 00:09:26;;;;;;;30.13;24.33;;;9.30;34.00;;;;;;5085571;28;20905;-56
2023/03/22 00:11:53;;;;;;;27.00;23.43;;;9.20;34.30;;;;;;5095129;28;20445;-57
2023/03/22 00:14:19;;;;;;;26.40;22.60;;;9.20;34.00;;;;;;5090602;28;21000;-57
2023/03/22 00:16:47;;;;;;;21.87;19.57;;;9.20;34.80;;;;;;5101994;28;20457;-56
2023/03/22 00:19:15;;;;;;;23.90;19.50;;;9.20;35.50;;;;;;5088518;28;20480;-59
2023/03/22 00:21:41;;;;;;;23.77;19.70;;;9.10;35.50;;;;;;5092052;28;20563;-57
2023/03/22 00:24:09;;;;;;;23.97;20.60;;;9.00;35.60;;;;;;5092525;28;20461;-58
2023/03/22 00:26:36;;;;;;;20.80;17.50;;;9.00;35.50;;;;;;5094019;28;20440;-56
2023/03/22 00:29:03;;;;;;;22.30;19.90;;;8.90;37.50;;;;;;5095173;28;20483;-57
2023/03/22 00:31:30;;;;;;;25.23;18.97;;;9.00;38.10;;;;;;5090471;28;20876;-57
2023/03/22 00:33:56;;;;;;;20.10;18.03;;;8.90;37.50;;;;;;5089610;28;20533;-66
2023/03/22 00:36:23;;;;;;;22.43;17.70;;;8.90;39.10;;;;;;5099037;28;20432;-57
2023/03/22 00:38:50;;;;;;;19.67;17.57;;;8.90;41.90;;;;;;5096563;28;20460;-65
2023/03/22 00:41:20;;;;;;;19.53;17.53;;;8.90;43.10;;;;;;5095649;28;20479;-58
2023/03/22 00:43:48;;;;;;;17.60;15.60;;;8.90;41.90;;;;;;5097801;28;20494;-69
2023/03/22 00:46:17;;;;;;;20.57;18.30;;;8.90;42.00;;;;;;5098280;28;20521;-67
2023/03/22 00:48:43;;;;;;;19.73;15.70;;;8.90;42.00;;;;;;5093412;28;20476;-57
2023/03/22 00:51:10;;;;;;;20.80;15.63;;;8.90;42.00;;;;;;5095257;28;20506;-57
2023/03/22 00:53:37;;;;;;;18.83;15.40;;;8.90;43.80;;;;;;5090292;28;20461;-62
2023/03/22 00:56:04;;;;;;;18.87;15.87;;;8.80;43.20;;;;;;5096313;28;20456;-61
2023/03/22 00:58:32;;;;;;;19.20;16.73;;;8.80;43.60;;;;;;5093544;28;20998;-62
2023/03/22 01:00:59;;;;;;;16.30;14.80;;;8.80;44.70;;;;;;5091232;28;20485;-58
2023/03/22 01:03:25;;;;;;;18.63;14.90;;;8.80;44.90;;;;;;5087024;28;20460;-58
2023/03/22 01:05:55;;;;;;;26.13;17.07;;;8.80;45.10;;;;;;5094281;28;21019;-58
2023/03/22 01:08:22;;;;;;;17.40;15.70;;;8.70;45.10;;;;;;5090925;28;20487;-57
2023/03/22 01:10:49;;;;;;;19.10;16.50;;;8.70;45.60;;;;;;5093902;28;20452;-56
2023/03/22 01:13:16;;;;;;;17.43;15.17;;;8.70;45.90;;;;;;5094245;28;20445;-56
2023/03/22 01:15:46;;;;;;;16.47;14.77;;;8.70;47.20;;;;;;5089611;28;20461;-56
2023/03/22 01:18:13;;;;;;;17.77;15.00;;;8.70;48.00;;;;;;5092595;28;20495;-56
2023/03/22 01:20:39;;;;;;;16.17;14.57;;;8.70;47.90;;;;;;5090891;28;20469;-57
2023/03/22 01:23:06;;;;;;;15.13;13.27;;;8.80;47.20;;;;;;5091137;28;20511;-58
2023/03/22 01:25:33;;;;;;;17.90;15.00;;;8.70;45.80;;;;;;5079933;28;21005;-58
2023/03/22 01:28:01;;;;;;;15.60;13.90;;;8.70;45.30;;;;;;5084714;28;20510;-57
2023/03/22 01:30:28;;;;;;;17.43;14.10;;;8.60;46.00;;;;;;5090454;28;20535;-60
2023/03/22 01:32:56;;;;;;;17.43;13.77;;;8.60;47.50;;;;;;5082363;28;20970;-57
2023/03/22 01:35:22;;;;;;;14.83;13.13;;;8.50;48.30;;;;;;5090611;28;20460;-57
2023/03/22 01:37:49;;;;;;;18.10;13.77;;;8.50;48.20;;;;;;5092723;28;20456;-58
2023/03/22 01:40:17;;;;;;;14.67;13.23;;;8.50;48.40;;;;;;5091276;28;20956;-57
2023/03/22 01:42:43;;;;;;;17.23;13.83;;;8.50;49.10;;;;;;5094046;28;20440;-57
2023/03/22 01:45:35;;;;;;;17.00;15.20;;;8.50;49.60;;;;;;5087686;28;20506;-57
2023/03/22 01:48:08;;;;;;;14.83;13.43;;;8.40;49.40;;;;;;5083796;28;20456;-57
2023/03/22 01:50:37;;;;;;;17.83;13.13;;;8.40;49.20;;;;;;5093472;28;20428;-56
2023/03/22 01:53:05;;;;;;;14.90;13.27;;;8.30;48.50;;;;;;5089445;28;20460;-57
2023/03/22 01:55:33;;;;;;;14.40;12.33;;;8.30;50.20;;;;;;5089577;28;20437;-56
2023/03/22 01:58:01;;;;;;;19.33;12.30;;;8.30;51.70;;;;;;5084813;28;20467;-57
2023/03/22 02:00:28;;;;;;;20.80;12.63;;;8.40;53.30;;;;;;5088657;28;20457;-57
2023/03/22 02:02:55;;;;;;;13.87;12.37;;;8.40;53.60;;;;;;5085754;28;20460;-57
2023/03/22 02:05:23;;;;;;;14.07;12.53;;;8.40;53.20;;;;;;5088580;28;20484;-57
2023/03/22 02:07:50;;;;;;;12.47;11.17;;;8.40;53.90;;;;;;5081928;28;20519;-57
2023/03/22 02:10:19;;;;;;;14.40;12.43;;;8.40;53.60;;;;;;5088771;28;20530;-57
2023/03/22 02:12:59;;;;;;;18.57;12.43;;;8.40;53.10;;;;;;5085537;28;20495;-57
2023/03/22 02:15:33;;;;;;;13.20;11.80;;;8.40;52.40;;;;;;5090896;28;20552;-57
2023/03/22 02:18:15;;;;;;;15.00;13.40;;;8.40;54.10;;;;;;5087369;28;20462;-57
2023/03/22 02:21:20;;;;;;;15.93;13.03;;;8.50;54.80;;;;;;5080942;28;20499;-57
2023/03/22 02:24:14;;;;;;;13.90;12.50;;;8.50;55.60;;;;;;5087377;28;20451;-57
2023/03/22 02:27:05;;;;;;;13.30;12.00;;;8.50;56.40;;;;;;5074515;28;20575;-57
2023/03/22 02:29:40;;;;;;;16.10;13.57;;;8.50;56.70;;;;;;5091643;28;20487;-56
2023/03/22 02:32:49;;;;;;;18.33;12.97;;;8.50;56.30;;;;;;5082700;28;20507;-57
2023/03/22 02:35:46;;;;;;;15.67;11.83;;;8.50;55.90;;;;;;5084911;28;21062;-57
2023/03/22 02:38:52;;;;;;;13.77;12.47;;;8.50;56.90;;;;;;5082070;28;20480;-57
2023/03/22 02:41:29;;;;;;;14.33;12.33;;;8.50;56.90;;;;;;5078039;28;21028;-57
2023/03/22 02:44:06;;;;;;;15.33;12.33;;;8.50;56.80;;;;;;5090550;28;20464;-58
2023/03/22 02:46:38;;;;;;;15.40;12.77;;;8.40;56.90;;;;;;5086934;28;20465;-57
2023/03/22 02:49:11;;;;;;;15.47;11.87;;;8.40;56.30;;;;;;5081974;28;20486;-57
2023/03/22 02:51:43;;;;;;;14.70;12.63;;;8.40;58.00;;;;;;5090508;28;20456;-58
2023/03/22 02:54:14;;;;;;;16.20;12.57;;;8.40;57.70;;;;;;5081506;28;20461;-57
2023/03/22 02:56:46;;;;;;;13.77;12.30;;;8.30;57.10;;;;;;5077457;28;20511;-57
2023/03/22 02:59:15;;;;;;;17.23;12.93;;;8.30;57.60;;;;;;5086684;28;21064;-56
2023/03/22 03:01:45;;;;;;;16.43;12.97;;;8.30;60.20;;;;;;5084625;28;20480;-56
2023/03/22 03:04:16;;;;;;;16.80;12.20;;;8.30;61.00;;;;;;5083441;28;20476;-56
2023/03/22 03:06:45;;;;;;;17.00;12.93;;;8.20;60.20;;;;;;5088491;28;20468;-57
2023/03/22 03:09:16;;;;;;;16.90;13.53;;;8.20;60.10;;;;;;5078566;28;20488;-56
2023/03/22 03:11:45;;;;;;;15.90;12.73;;;8.20;60.50;;;;;;5085658;28;20990;-57
2023/03/22 03:14:20;;;;;;;16.07;12.77;;;8.20;60.50;;;;;;5085104;28;20542;-57
2023/03/22 03:16:54;;;;;;;13.80;12.07;;;8.10;60.60;;;;;;5087323;28;20466;-57
2023/03/22 03:19:31;;;;;;;16.93;12.53;;;8.20;62.10;;;;;;5084768;28;21171;-57
2023/03/22 03:22:04;;;;;;;14.63;12.17;;;8.20;63.90;;;;;;5087104;28;20564;-57
2023/03/22 03:24:37;;;;;;;14.37;12.50;;;8.20;64.50;;;;;;5090444;28;20488;-57
2023/03/22 03:27:11;;;;;;;17.23;13.23;;;8.20;64.30;;;;;;5081913;28;20456;-57
2023/03/22 03:29:41;;;;;;;15.03;13.43;;;8.30;64.00;;;;;;5085754;28;20476;-57
2023/03/22 03:32:14;;;;;;;18.57;12.77;;;8.30;63.50;;;;;;5088246;28;21217;-57
2023/03/22 03:34:48;;;;;;;15.50;13.43;;;8.30;64.20;;;;;;5084492;28;20458;-56
2023/03/22 03:37:18;;;;;;;14.83;12.77;;;8.40;63.60;;;;;;5091641;28;20532;-56
2023/03/22 03:39:50;;;;;;;14.90;13.23;;;8.40;63.00;;;;;;5087943;28;20473;-57
2023/03/22 03:42:19;;;;;;;14.10;12.60;;;8.40;62.70;;;;;;5090626;28;20485;-57
2023/03/22 03:44:46;;;;;;;14.70;12.33;;;8.40;62.70;;;;;;5091627;28;20518;-57
2023/03/22 03:47:14;;;;;;;17.53;13.33;;;8.40;63.10;;;;;;5089668;28;20501;-57
2023/03/22 03:49:40;;;;;;;18.77;14.20;;;8.40;58.80;;;;;;5087458;28;20468;-57
2023/03/22 03:52:07;;;;;;;13.87;12.50;;;8.40;60.00;;;;;;5090694;28;20456;-57
2023/03/22 03:54:34;;;;;;;15.17;13.03;;;8.40;59.60;;;;;;5088097;28;20452;-58
2023/03/22 03:57:01;;;;;;;13.80;11.43;;;8.40;58.50;;;;;;5090579;28;20489;-57
2023/03/22 03:59:29;;;;;;;16.60;12.40;;;8.40;56.80;;;;;;5085011;28;20885;-57
2023/03/22 04:01:55;;;;;;;13.60;12.13;;;8.30;57.60;;;;;;5085013;28;20476;-56
2023/03/22 04:04:26;;;;;;;13.23;12.00;;;8.30;58.00;;;;;;5083510;28;20475;-55
2023/03/22 04:06:55;;;;;;;15.23;12.80;;;8.30;56.60;;;;;;5090442;28;20464;-56
2023/03/22 04:09:22;;;;;;;16.70;12.00;;;8.30;57.80;;;;;;5076475;28;20481;-56
2023/03/22 04:11:49;;;;;;;13.50;11.73;;;8.30;57.20;;;;;;5090537;28;20467;-57
2023/03/22 04:14:15;;;;;;;13.77;12.37;;;8.30;57.20;;;;;;5090312;28;20492;-57
2023/03/22 04:16:43;;;;;;;14.50;12.30;;;8.40;56.80;;;;;;5086555;28;20465;-56
2023/03/22 04:19:10;;;;;;;14.77;12.93;;;8.30;56.40;;;;;;5081123;28;20487;-53
2023/03/22 04:21:36;;;;;;;13.20;11.90;;;8.30;56.00;;;;;;5090497;28;20516;-55
2023/03/22 04:24:04;;;;;;;16.23;12.57;;;8.40;55.00;;;;;;5090842;28;20461;-56
2023/03/22 04:26:31;;;;;;;12.80;11.60;;;8.40;54.40;;;;;;5087633;28;20544;-55
2023/03/22 04:28:58;;;;;;;20.83;12.90;;;8.40;53.60;;;;;;5092220;28;20541;-56
2023/03/22 04:31:24;;;;;;;13.50;11.80;;;8.40;53.60;;;;;;5089199;28;20551;-57
2023/03/22 04:33:55;;;;;;;12.50;11.20;;;8.40;52.80;;;;;;5087790;28;20492;-57
2023/03/22 04:36:22;;;;;;;14.33;12.57;;;8.40;51.70;;;;;;5092776;28;20457;-56
2023/03/22 04:38:50;;;;;;;12.63;11.43;;;8.40;51.50;;;;;;5085130;28;20485;-57
2023/03/22 04:41:17;;;;;;;13.20;11.80;;;8.30;50.60;;;;;;5087857;28;20905;-54
2023/03/22 04:43:45;;;;;;;13.93;12.43;;;8.30;49.80;;;;;;5089707;28;20456;-57
2023/03/22 04:46:13;;;;;;;19.27;11.40;;;8.30;48.60;;;;;;5088024;28;20934;-57
2023/03/22 04:48:41;;;;;;;15.83;12.70;;;8.30;47.90;;;;;;5092973;28;20545;-57
2023/03/22 04:51:11;;;;;;;16.60;11.07;;;8.30;47.80;;;;;;5080470;28;20456;-57
2023/03/22 04:53:38;;;;;;;13.83;12.33;;;8.20;46.90;;;;;;5092265;28;20465;-56
2023/03/22 04:56:06;;;;;;;13.07;11.70;;;8.20;46.50;;;;;;5090217;28;20460;-57
2023/03/22 04:58:33;;;;;;;13.07;11.67;;;8.20;46.10;;;;;;5091531;28;20480;-56
2023/03/22 05:01:00;;;;;;;20.83;17.37;;;8.30;45.60;;;;;;5080869;28;20497;-57
2023/03/22 05:03:27;;;;;;;12.90;11.30;;;8.30;44.00;;;;;;5088783;28;20542;-56
2023/03/22 05:05:55;;;;;;;12.43;11.23;;;8.30;43.30;;;;;;5093052;28;20445;-57
2023/03/22 05:08:24;;;;;;;14.90;12.43;;;8.20;43.30;;;;;;5090651;28;20539;-56
2023/03/22 05:10:52;;;;;;;17.70;11.90;;;8.20;42.00;;;;;;5092081;28;20468;-57
2023/03/22 05:13:18;;;;;;;12.87;11.60;;;8.30;41.90;;;;;;5086789;28;20826;-57
2023/03/22 05:15:46;;;;;;;16.80;12.37;;;8.30;38.20;;;;;;5092511;28;20514;-57
2023/03/22 05:18:13;;;;;;;14.57;12.40;;;8.30;38.30;;;;;;5084516;28;20440;-54
2023/03/22 05:20:40;;;;;;;14.80;12.20;;;8.30;37.50;;;;;;5088497;28;20466;-52
2023/03/22 05:23:08;;;;;;;15.33;12.30;;;8.30;37.30;;;;;;5085331;28;20873;-54
2023/03/22 05:25:37;;;;;;;12.87;11.77;;;8.30;37.10;;;;;;5090015;28;20483;-53
2023/03/22 05:28:04;;;;;;;16.33;12.60;;;8.30;36.20;;;;;;5084029;28;20945;-53
2023/03/22 05:30:32;;;;;;;19.53;12.47;;;8.30;34.50;;;;;;5080625;28;20497;-53
2023/03/22 05:33:01;;;;;;;13.90;12.53;;;8.30;32.60;;;;;;5086363;28;20452;-53
2023/03/22 05:35:28;;;;;;;12.37;11.07;;;8.30;32.80;;;;;;5085731;28;20984;-53
2023/03/22 05:37:55;;;;;;;16.43;12.23;;;8.30;32.10;;;;;;5087953;28;20962;-53
2023/03/22 05:40:22;;;;;;;15.60;11.80;;;8.30;31.90;;;;;;5092541;28;21002;-53
2023/03/22 05:42:50;;;;;;;13.60;11.60;;;8.30;31.40;;;;;;5088420;28;20766;-52
2023/03/22 05:45:17;;;;;;;18.67;13.13;;;8.30;30.50;;;;;;5079099;28;20550;-52
2023/03/22 05:47:44;;;;;;;13.23;11.80;;;8.30;29.90;;;;;;5090841;28;20867;-52
2023/03/22 05:50:13;;;;;;;16.60;12.30;;;8.30;29.80;;;;;;5088876;28;20480;-51
2023/03/22 05:52:41;;;;;;;13.53;11.97;;;8.30;29.30;;;;;;5080415;28;20483;-52
2023/03/22 05:55:08;;;;;;;14.33;12.83;;;8.30;29.10;;;;;;5091249;28;20460;-52
2023/03/22 05:57:35;;;;;;;19.03;12.57;;;8.30;28.80;;;;;;5090967;28;21064;-53
2023/03/22 06:00:09;;;;;;;16.83;13.97;;;8.40;25.90;;;;;;5076755;28;20534;-53
2023/03/22 06:02:35;;;;;;;14.23;12.07;;;8.40;26.60;;;;;;5083013;28;20878;-53
2023/03/22 06:05:02;;;;;;;16.10;12.30;;;8.40;25.60;;;;;;5089411;28;20445;-54
2023/03/22 06:07:28;;;;;;;13.30;11.90;;;8.40;23.90;;;;;;5081490;28;20507;-53
2023/03/22 06:09:55;;;;;;;12.53;11.23;;;8.40;24.70;;;;;;5086191;28;20521;-53
2023/03/22 06:12:23;;;;;;;15.00;11.90;;;8.50;24.00;;;;;;5090087;28;20883;-53
2023/03/22 06:14:50;;;;;;;14.23;11.20;;;8.50;20.60;;;;;;5086224;28;20876;-53
2023/03/22 06:17:18;;;;;;;15.20;11.73;;;8.60;21.70;;;;;;5084977;28;20457;-53
2023/03/22 06:19:45;;;;;;;20.10;12.33;;;8.60;20.80;;;;;;5078880;28;20932;-53
2023/03/22 06:22:11;;;;;;;15.70;13.53;;;8.60;75.40;;;;;;5085260;28;20480;-53
2023/03/22 06:24:39;;;;;;;16.50;12.77;;;8.60;89.60;;;;;;5085223;28;20816;-53
2023/03/22 06:27:06;;;;;;;17.40;13.07;;;8.60;99.90;;;;;;5089746;28;20456;-53
2023/03/22 06:29:32;;;;;;;14.63;12.77;;;8.60;99.90;;;;;;5079565;28;20480;-53
2023/03/22 06:31:59;;;;;;;13.80;11.90;;;8.60;99.90;;;;;;5090948;28;20502;-53
2023/03/22 06:34:27;;;;;;;16.53;13.60;;;8.70;99.90;;;;;;5090488;28;21015;-52
2023/03/22 06:36:54;;;;;;;18.20;12.60;;;8.70;99.90;;;;;;5091256;28;20444;-54
2023/03/22 06:39:21;;;;;;;14.60;13.07;;;8.80;99.90;;;;;;5087100;28;20476;-53
2023/03/22 06:41:48;;;;;;;14.67;12.67;;;8.80;99.90;;;;;;5087799;28;20456;-53
2023/03/22 06:44:15;;;;;;;14.80;12.83;;;8.90;99.90;;;;;;5083026;28;20457;-53
2023/03/22 06:46:41;;;;;;;14.27;12.77;;;8.80;99.90;;;;;;5088182;28;20460;-54
2023/03/22 06:49:09;;;;;;;16.67;12.23;;;8.80;99.90;;;;;;5088185;28;20487;-52
2023/03/22 06:51:36;;;;;;;20.17;12.83;;;8.90;99.90;;;;;;5089576;28;20460;-53
2023/03/22 06:54:03;;;;;;;14.47;12.97;;;9.00;99.90;;;;;;5088446;28;20510;-54
2023/03/22 06:56:30;;;;;;;16.03;12.40;;;9.00;99.90;;;;;;5073587;28;20522;-52
2023/03/22 06:58:57;;;;;;;15.20;11.70;;;9.00;99.90;;;;;;5080116;28;20828;-53
2023/03/22 07:01:24;;;;;;;16.40;11.60;;;9.00;99.90;;;;;;5089374;28;20556;-53
2023/03/22 07:03:51;;;;;;;14.37;12.97;;;9.10;99.90;;;;;;5084637;28;20567;-53
2023/03/22 07:06:17;;;;;;;16.93;12.73;;;9.10;99.90;;;;;;5086320;28;20525;-54
2023/03/22 07:08:45;;;;;;;12.80;11.50;;;9.10;92.50;;;;;;5088336;28;20476;-53
2023/03/22 07:11:12;;;;;;;15.43;13.23;;;9.10;90.50;;;;;;5083165;28;20490;-53
2023/03/22 07:13:38;;;;;;;14.63;12.30;;;9.10;92.30;;;;;;5083624;28;20454;-53
2023/03/22 07:16:06;;;;;;;13.87;12.47;;;9.20;76.70;;;;;;5079910;28;20533;-53
2023/03/22 07:18:33;;;;;;;14.83;12.60;;;9.20;20.30;;;;;;5070563;28;20496;-53
2023/03/22 07:20:59;;;;;;;17.23;12.77;;;9.20;22.50;;;;;;5079435;28;20461;-53
2023/03/22 07:23:31;;;;;;;13.73;11.90;;;9.30;22.40;;;;;;5084387;28;20840;-52
2023/03/22 07:26:00;;;;;;;15.47;12.00;;;9.30;24.60;;;;;;5084526;28;20476;-54
2023/03/22 07:28:27;;;;;;;18.93;12.73;;;9.30;30.30;;;;;;5084567;28;20514;-54
2023/03/22 07:31:00;;;;;;;16.83;12.23;;;9.30;29.10;;;;;;5079106;28;21846;-54
2023/03/22 07:33:27;;;;;;;13.70;11.73;;;9.40;28.60;;;;;;5081916;28;20805;-54
2023/03/22 07:35:54;;;;;;;21.70;13.53;;;9.50;26.90;;;;;;5081020;28;20496;-53
2023/03/22 07:38:23;;;;;;;18.53;13.53;;;9.50;31.10;;;;;;5080491;28;20480;-57
2023/03/22 07:40:53;;;;;;;14.23;12.77;;;9.50;33.30;;;;;;5063579;28;20523;-57
2023/03/22 07:43:21;;;;;;;15.00;12.10;;;9.60;34.10;;;;;;5080621;28;20477;-58
2023/03/22 07:45:48;;;;;;;17.50;14.17;;;9.70;38.70;;;;;;5079246;28;20465;-58
2023/03/22 07:48:15;;;;;;;21.10;17.80;;;9.80;38.80;;;;;;5076058;28;20533;-58
2023/03/22 07:50:42;;;;;;;20.93;15.47;;;9.80;47.20;;;;;;5087473;28;20460;-58
2023/03/22 07:53:09;;;;;;;36.00;11.83;;;9.90;46.90;;;;;;5077298;28;20461;-58
2023/03/22 07:55:35;;;;;;;18.50;12.77;;;10.00;61.10;;;;;;5078973;28;20471;-58
2023/03/22 07:58:02;;;;;;;13.73;12.30;;;10.00;64.90;;;;;;5076467;28;20621;-57
2023/03/22 08:00:30;;;;;;;14.63;11.80;;;10.20;62.90;;;;;;5080525;28;20461;-58
2023/03/22 08:02:57;;;;;;;14.13;12.10;;;10.30;67.90;;;;;;5084098;28;20552;-58
2023/03/22 08:05:24;;;;;;;17.27;12.40;;;10.30;79.90;;;;;;5077298;28;20493;-58
2023/03/22 08:07:53;;;;;;;14.40;12.27;;;10.50;80.10;;;;;;5080550;28;20628;-58
2023/03/22 08:10:19;;;;;;;14.00;12.50;;;10.60;76.70;;;;;;5075774;28;20527;-58
2023/03/22 08:12:46;;;;;;;17.50;13.27;;;10.70;83.50;;;;;;5080327;28;20541;-59
2023/03/22 08:15:12;;;;;;;15.80;12.80;;;10.70;88.10;;;;;;5078627;28;20489;-59
2023/03/22 08:17:40;;;;;;;15.37;12.33;;;10.80;87.60;;;;;;5084959;28;20449;-57
2023/03/22 08:20:08;;;;;;;15.60;12.73;;;10.80;93.60;;;;;;5085392;28;20484;-57
2023/03/22 08:22:36;;;;;;;13.70;12.17;;;10.80;99.90;;;;;;5078809;28;20541;-60
2023/03/22 08:25:03;;;;;;;21.20;11.73;;;10.80;99.90;;;;;;5100365;28;20434;-52
2023/03/22 08:27:31;;;;;;;13.80;11.63;;;10.90;99.90;;;;;;5075527;28;20522;-51
2023/03/22 08:29:58;;;;;;;17.73;12.97;;;10.90;97.30;;;;;;5072775;28;20491;-52
2023/03/22 08:32:24;;;;;;;16.90;12.00;;;11.00;99.90;;;;;;5079549;28;20468;-51
2023/03/22 08:34:52;;;;;;;16.07;12.00;;;11.10;97.50;;;;;;5075426;28;21008;-51
2023/03/22 08:37:20;;;;;;;14.37;10.93;;;11.20;99.90;;;;;;5073417;28;20974;-51
2023/03/22 08:39:47;;;;;;;13.10;11.10;;;11.30;99.90;;;;;;5078947;28;20521;-52
2023/03/22 08:42:13;;;;;;;10.83;9.83;;;11.30;99.90;;;;;;5086031;28;20488;-51
2023/03/22 08:44:40;;;;;;;14.07;11.77;;;11.30;99.90;;;;;;5077453;28;20571;-51
2023/03/22 08:47:07;;;;;;;10.83;9.60;;;11.30;99.90;;;;;;5075267;28;21418;-51
2023/03/22 08:49:34;;;;;;;13.33;11.20;;;11.30;99.90;;;;;;5083089;28;20508;-51
2023/03/22 08:52:02;;;;;;;14.30;12.13;;;11.30;99.90;;;;;;5101294;28;20465;-53
2023/03/22 08:54:31;;;;;;;22.83;13.50;;;11.40;99.90;;;;;;5100014;28;20537;-51
2023/03/22 08:56:59;;;;;;;15.73;12.33;;;11.60;99.90;;;;;;5084220;28;21012;-52
2023/03/22 08:59:26;;;;;;;15.20;11.10;;;11.60;99.90;;;;;;5080458;28;20482;-51
2023/03/22 09:01:52;;;;;;;13.60;11.70;;;11.60;99.90;;;;;;5086101;28;20842;-51
2023/03/22 09:04:19;;;;;;;11.43;10.23;;;11.70;99.90;;;;;;5080112;28;20508;-51
2023/03/22 09:06:45;;;;;;;15.37;11.60;;;11.80;99.90;;;;;;5083614;28;20468;-51
2023/03/22 09:09:13;;;;;;;11.60;10.07;;;11.90;99.90;;;;;;5079013;28;20505;-51
2023/03/22 09:11:41;;;;;;;12.73;11.10;;;12.00;99.90;;;;;;5081415;28;20488;-52
2023/03/22 09:14:08;;;;;;;11.40;10.17;;;12.20;99.90;;;;;;5085073;28;20536;-51
2023/03/22 09:16:35;;;;;;;12.93;10.97;;;12.30;99.90;;;;;;5077507;28;20527;-52
2023/03/22 09:19:02;;;;;;;11.37;10.07;;;12.60;99.90;;;;;;5082071;28;20480;-51
2023/03/22 09:21:29;;;;;;;10.97;9.50;;;12.80;99.90;;;;;;5077827;28;20967;-52
2023/03/22 09:23:56;;;;;;;16.60;11.03;;;12.80;99.90;;;;;;5079542;28;20481;-51
2023/03/22 09:26:25;;;;;;;14.00;10.40;;;12.70;99.90;;;;;;5077130;28;20496;-51
2023/03/22 09:28:52;;;;;;;14.37;11.37;;;12.90;99.90;;;;;;5082757;28;20572;-51
2023/03/22 09:31:19;;;;;;;14.80;10.80;;;13.00;22.80;;;;;;5082387;28;20616;-52
2023/03/22 09:33:46;;;;;;;11.20;9.80;;;13.30;23.90;;;;;;5079461;28;20547;-51
2023/03/22 09:36:12;;;;;;;11.13;9.10;;;13.80;61.60;;;;;;5075840;28;20988;-52
2023/03/22 09:38:40;;;;;;;14.47;10.90;;;13.80;99.90;;;;;;5077926;28;20992;-51
2023/03/22 09:41:12;;;;;;;11.47;9.90;;;13.80;96.80;;;;;;5078394;28;22277;-51
2023/03/22 09:43:43;;;;;;;11.73;9.27;;;13.70;99.90;;;;;;5078015;28;21227;-51
2023/03/22 09:46:13;;;;;;;14.57;10.00;;;13.60;99.90;;;;;;5081784;28;20453;-51
2023/03/22 09:48:42;;;;;;;13.50;9.47;;;13.50;99.90;;;;;;5077175;28;20522;-51
2023/03/22 09:51:23;;;;;;;16.40;9.33;;;13.80;99.90;;;;;;5084923;28;21019;-51
2023/03/22 09:53:50;;;;;;;15.73;10.93;;;13.60;99.90;;;;;;5085217;28;20453;-51
2023/03/22 09:56:22;;;;;;;10.30;9.17;;;13.60;99.90;;;;;;5081390;28;20934;-51
2023/03/22 09:58:54;;;;;;;11.17;10.13;;;13.40;99.90;;;;;;5082714;28;20840;-51
2023/03/22 10:01:30;;;;;;;13.53;9.30;;;13.40;99.90;;;;;;5073983;28;20466;-52
2023/03/22 10:04:17;;;;;;;10.23;9.23;;;13.40;99.90;;;;;;5079920;28;20557;-52
2023/03/22 10:06:49;;;;;;;11.83;9.37;;;13.60;85.20;;;;;;5078016;28;20460;-50
2023/03/22 10:09:22;;;;;;;10.40;8.90;;;14.20;99.90;;;;;;5084104;28;20481;-51
2023/03/22 10:11:59;;;;;;;10.47;8.20;;;14.20;99.90;;;;;;5078454;28;20460;-54
2023/03/22 10:14:32;;;;;;;12.20;7.97;;;14.30;99.90;;;;;;5087329;28;20448;-51
2023/03/22 10:17:04;;;;;;;11.13;7.50;;;14.10;99.90;;;;;;5079155;28;20453;-51
2023/03/22 10:19:35;;;;;;;11.60;8.17;;;14.10;99.90;;;;;;5103659;22;21062;-52
2023/03/22 10:22:03;;;;;;;13.13;8.60;;;13.90;99.90;;;;;;5065370;28;20619;-51
2023/03/22 10:24:32;;;;;;;13.53;7.13;;;13.90;99.90;;;;;;5065739;28;20538;-51
2023/03/22 10:26:59;;;;;;;12.20;7.70;;;13.80;99.90;;;;;;5056831;28;20462;-53
2023/03/22 10:29:34;;;;;;;8.80;6.97;;;13.70;99.90;;;;;;5065526;28;21161;-53
2023/03/22 10:32:13;;;;;;;11.20;7.60;;;13.80;99.90;;;;;;5057611;28;20584;-53
2023/03/22 10:34:40;;;;;;;8.17;7.27;;;13.70;99.90;;;;;;5065408;28;20461;-53
2023/03/22 10:37:11;;;;;;;11.40;6.97;;;13.70;99.90;;;;;;5060056;28;20524;-53
2023/03/22 10:39:41;;;;;;;9.33;6.23;;;13.90;99.90;;;;;;5065278;28;20563;-54
2023/03/22 10:42:11;;;;;;;6.30;5.70;;;14.00;99.90;;;;;;5063226;28;20450;-53
2023/03/22 10:44:46;;;;;;;10.40;6.20;;;14.30;99.90;;;;;;5070948;28;20829;-52
2023/03/22 10:47:17;;;;;;;11.00;6.53;;;14.30;99.90;;;;;;5065115;28;20651;-52
2023/03/22 10:49:47;;;;;;;11.90;6.20;;;14.40;99.90;;;;;;5068882;28;20456;-52
2023/03/22 10:52:31;;;;;;;7.20;6.50;;;14.50;99.90;;;;;;5065333;28;20459;-51
2023/03/22 10:54:58;;;;;;;7.33;6.43;;;14.30;99.90;;;;;;5063909;28;20458;-52
2023/03/22 10:57:25;;;;;;;7.03;6.33;;;14.30;99.90;;;;;;5062161;28;20462;-52
2023/03/22 10:59:56;;;;;;;7.03;6.33;;;14.30;99.90;;;;;;5067695;28;20982;-52
2023/03/22 11:02:27;;;;;;;7.80;6.33;;;14.40;99.90;;;;;;5066679;28;20464;-52
2023/03/22 11:04:56;;;;;;;13.10;7.23;;;14.50;99.90;;;;;;5062571;28;20493;-53
2023/03/22 11:07:32;;;;;;;9.43;6.93;;;14.50;99.90;;;;;;5062917;28;20458;-53
2023/03/22 11:10:11;;;;;;;10.93;7.40;;;14.60;99.90;;;;;;5063474;28;20480;-54
2023/03/22 11:12:41;;;;;;;8.70;6.60;;;14.90;99.90;;;;;;5059443;28;20550;-53
2023/03/22 11:15:27;;;;;;;7.00;6.13;;;15.30;32.50;;;;;;5065734;28;20451;-53
2023/03/22 11:17:59;;;;;;;8.50;6.00;;;15.30;45.20;;;;;;5068920;28;20468;-53
2023/03/22 11:20:26;;;;;;;7.10;6.50;;;15.10;50.10;;;;;;5058039;28;20494;-53
2023/03/22 11:22:55;;;;;;;6.60;5.60;;;15.10;52.70;;;;;;5063142;28;20469;-52
2023/03/22 11:25:26;;;;;;;10.30;6.53;;;15.00;56.50;;;;;;5063655;28;20478;-52
2023/03/22 11:27:55;;;;;;;7.00;6.40;;;15.00;52.70;;;;;;5068068;28;20522;-52
2023/03/22 11:30:25;;;;;;;6.30;4.37;;;15.10;40.90;;;;;;5061762;28;20528;-53
2023/03/22 11:33:02;;;;;;;6.30;5.43;;;15.20;70.70;;;;;;5061947;28;20473;-54
2023/03/22 11:35:30;;;;;;;5.60;4.80;;;15.40;73.60;;;;;;5064890;28;20457;-53
2023/03/22 11:37:58;;;;;;;7.30;3.90;;;15.60;94.20;;;;;;5067314;28;20848;-53
2023/03/22 11:40:27;;;;;;;6.27;4.27;;;15.80;99.90;;;;;;5064355;28;20507;-53
2023/03/22 11:42:56;;;;;;;8.23;4.10;;;16.50;99.90;;;;;;5064641;28;20461;-52
2023/03/22 11:45:29;;;;;;;4.30;3.90;;;16.50;99.90;;;;;;5062497;28;20506;-51
2023/03/22 11:48:02;;;;;;;8.67;3.70;;;16.50;99.90;;;;;;5067178;28;20469;-52
2023/03/22 11:50:30;;;;;;;3.50;3.23;;;16.50;99.90;;;;;;5062230;28;20509;-51
2023/03/22 11:52:57;;;;;;;5.13;4.23;;;16.40;99.90;;;;;;5057676;28;20463;-52
2023/03/22 11:55:25;;;;;;;6.17;4.33;;;16.20;99.90;;;;;;5056389;28;20519;-53
2023/03/22 11:57:55;;;;;;;4.63;3.10;;;16.30;99.90;;;;;;5065649;28;20475;-51
2023/03/22 12:00:26;;;;;;;4.43;3.80;;;16.20;99.90;;;;;;5060726;28;20479;-51
2023/03/22 12:02:56;;;;;;;4.53;3.70;;;16.30;99.90;;;;;;5061552;28;20467;-52
2023/03/22 12:05:26;;;;;;;10.20;3.57;;;16.40;99.90;;;;;;5048121;28;20520;-53
2023/03/22 12:07:59;;;;;;;5.87;3.53;;;16.50;99.90;;;;;;5063958;28;20457;-54
2023/03/22 12:10:29;;;;;;;4.03;3.43;;;16.60;99.90;;;;;;5060737;28;20482;-52
2023/03/22 12:13:00;;;;;;;3.30;3.03;;;16.80;99.90;;;;;;5059421;28;20499;-52
2023/03/22 12:15:31;;;;;;;3.67;3.30;;;17.10;99.90;;;;;;5064701;28;20456;-53
2023/03/22 12:18:03;;;;;;;3.13;2.90;;;17.20;99.90;;;;;;5062153;28;20518;-54
2023/03/22 12:20:40;;;;;;;2.90;2.70;;;17.30;99.90;;;;;;5053728;28;20487;-53
2023/03/22 12:23:14;;;;;;;5.63;3.57;;;17.20;99.90;;;;;;5053637;28;20454;-53
2023/03/22 12:25:44;;;;;;;4.23;2.90;;;17.00;99.90;;;;;;5060935;28;20568;-53
2023/03/22 12:28:15;;;;;;;6.90;3.20;;;17.00;99.90;;;;;;5053402;28;20550;-51
2023/03/22 12:30:46;;;;;;;4.37;2.90;;;17.10;99.90;;;;;;5058394;28;20988;-52
2023/03/22 12:33:19;;;;;;;4.77;2.83;;;17.50;99.90;;;;;;5062376;28;20460;-53
2023/03/22 12:35:47;;;;;;;3.87;2.93;;;17.90;99.90;;;;;;5056642;28;20457;-53
2023/03/22 12:38:22;;;;;;;1.63;1.53;;;17.80;99.90;;;;;;5053007;28;20497;-54
2023/03/22 12:40:51;;;;;;;2.97;2.50;;;17.70;99.90;;;;;;5063544;28;20484;-54
2023/03/22 12:43:23;;;;;;;2.30;2.20;;;17.60;99.90;;;;;;5060710;28;20441;-52
2023/03/22 12:45:57;;;;;;;4.23;2.63;;;18.10;99.90;;;;;;5069596;28;20484;-52
2023/03/22 12:48:32;;;;;;;3.83;2.87;;;18.80;99.90;;;;;;5072762;28;20466;-52
2023/03/22 12:51:02;;;;;;;4.33;3.00;;;18.70;99.90;;;;;;5068544;28;21026;-53